sensor_id;sensor_type;location;lat;lon;timestamp;P1;durP1;ratioP1;P2;durP2;ratioP2
84687;SDS011;74908;42.040;21.322;2024-01-07T00:01:13;54.33;;;28.40;;
84687;SDS011;74908;42.040;21.322;2024-01-07T00:03:40;53.70;;;27.58;;
84687;SDS011;74908;42.040;21.322;2024-01-07T00:06:07;57.63;;;26.17;;
84687;SDS011;74908;42.040;21.322;2024-01-07T00:08:34;55.95;;;28.33;;
84687;SDS011;74908;42.040;21.322;2024-01-07T00:11:01;53.17;;;26.52;;
84687;SDS011;74908;42.040;21.322;2024-01-07T00:13:28;52.47;;;23.90;;
84687;SDS011;74908;42.040;21.322;2024-01-07T00:15:54;43.63;;;20.60;;
84687;SDS011;74908;42.040;21.322;2024-01-07T00:18:21;47.72;;;24.30;;
84687;SDS011;74908;42.040;21.322;2024-01-07T00:20:49;43.88;;;22.20;;
84687;SDS011;74908;42.040;21.322;2024-01-07T00:23:15;46.13;;;24.15;;
84687;SDS011;74908;42.040;21.322;2024-01-07T00:25:41;38.05;;;21.15;;
84687;SDS011;74908;42.040;21.322;2024-01-07T00:28:08;39.53;;;22.20;;
84687;SDS011;74908;42.040;21.322;2024-01-07T00:30:35;42.17;;;23.33;;
84687;SDS011;74908;42.040;21.322;2024-01-07T00:33:01;42.80;;;23.38;;
84687;SDS011;74908;42.040;21.322;2024-01-07T00:35:27;34.50;;;19.08;;
84687;SDS011;74908;42.040;21.322;2024-01-07T00:37:53;28.63;;;15.55;;
84687;SDS011;74908;42.040;21.322;2024-01-07T00:40:22;22.88;;;10.40;;
84687;SDS011;74908;42.040;21.322;2024-01-07T00:42:48;23.23;;;12.25;;
84687;SDS011;74908;42.040;21.322;2024-01-07T00:45:16;26.17;;;12.98;;
84687;SDS011;74908;42.040;21.322;2024-01-07T00:47:42;20.42;;;11.45;;
84687;SDS011;74908;42.040;21.322;2024-01-07T00:50:09;23.83;;;13.30;;
84687;SDS011;74908;42.040;21.322;2024-01-07T00:52:35;22.30;;;12.32;;
84687;SDS011;74908;42.040;21.322;2024-01-07T00:55:05;19.88;;;11.77;;
84687;SDS011;74908;42.040;21.322;2024-01-07T00:57:32;23.77;;;12.20;;
84687;SDS011;74908;42.040;21.322;2024-01-07T00:59:59;10.57;;;5.72;;
84687;SDS011;74908;42.040;21.322;2024-01-07T01:02:26;13.80;;;8.07;;
84687;SDS011;74908;42.040;21.322;2024-01-07T01:04:52;18.95;;;10.52;;
84687;SDS011;74908;42.040;21.322;2024-01-07T01:07:18;21.80;;;11.25;;
84687;SDS011;74908;42.040;21.322;2024-01-07T01:09:44;22.10;;;13.57;;
84687;SDS011;74908;42.040;21.322;2024-01-07T01:12:10;20.00;;;12.00;;
84687;SDS011;74908;42.040;21.322;2024-01-07T01:14:36;19.42;;;11.80;;
84687;SDS011;74908;42.040;21.322;2024-01-07T01:17:03;21.98;;;13.65;;
84687;SDS011;74908;42.040;21.322;2024-01-07T01:19:29;23.05;;;13.75;;
84687;SDS011;74908;42.040;21.322;2024-01-07T01:21:55;11.95;;;7.65;;
84687;SDS011;74908;42.040;21.322;2024-01-07T01:24:21;21.35;;;10.88;;
84687;SDS011;74908;42.040;21.322;2024-01-07T01:26:47;26.45;;;16.02;;
84687;SDS011;74908;42.040;21.322;2024-01-07T01:29:13;37.25;;;19.80;;
84687;SDS011;74908;42.040;21.322;2024-01-07T01:31:39;42.83;;;22.70;;
84687;SDS011;74908;42.040;21.322;2024-01-07T01:34:06;50.10;;;26.15;;
84687;SDS011;74908;42.040;21.322;2024-01-07T01:36:32;42.65;;;23.35;;
84687;SDS011;74908;42.040;21.322;2024-01-07T01:38:58;54.03;;;30.25;;
84687;SDS011;74908;42.040;21.322;2024-01-07T01:41:24;55.83;;;30.58;;
84687;SDS011;74908;42.040;21.322;2024-01-07T01:43:50;45.67;;;27.50;;
84687;SDS011;74908;42.040;21.322;2024-01-07T01:46:17;54.58;;;29.27;;
84687;SDS011;74908;42.040;21.322;2024-01-07T01:48:43;54.47;;;28.55;;
84687;SDS011;74908;42.040;21.322;2024-01-07T01:51:09;50.22;;;24.35;;
84687;SDS011;74908;42.040;21.322;2024-01-07T01:53:35;42.35;;;23.58;;
84687;SDS011;74908;42.040;21.322;2024-01-07T01:56:03;41.72;;;22.63;;
84687;SDS011;74908;42.040;21.322;2024-01-07T01:58:29;31.35;;;16.63;;
84687;SDS011;74908;42.040;21.322;2024-01-07T02:00:56;34.17;;;18.60;;
84687;SDS011;74908;42.040;21.322;2024-01-07T02:03:22;24.88;;;13.50;;
84687;SDS011;74908;42.040;21.322;2024-01-07T02:05:50;27.55;;;13.40;;
84687;SDS011;74908;42.040;21.322;2024-01-07T02:08:17;19.48;;;11.60;;
84687;SDS011;74908;42.040;21.322;2024-01-07T02:10:43;18.42;;;11.13;;
84687;SDS011;74908;42.040;21.322;2024-01-07T02:13:10;21.83;;;10.43;;
84687;SDS011;74908;42.040;21.322;2024-01-07T02:15:36;16.48;;;9.45;;
84687;SDS011;74908;42.040;21.322;2024-01-07T02:18:02;17.60;;;9.25;;
84687;SDS011;74908;42.040;21.322;2024-01-07T02:20:28;15.75;;;8.43;;
84687;SDS011;74908;42.040;21.322;2024-01-07T02:22:54;14.95;;;8.25;;
84687;SDS011;74908;42.040;21.322;2024-01-07T02:25:23;22.23;;;12.50;;
84687;SDS011;74908;42.040;21.322;2024-01-07T02:27:49;27.63;;;15.77;;
84687;SDS011;74908;42.040;21.322;2024-01-07T02:30:15;45.92;;;25.60;;
84687;SDS011;74908;42.040;21.322;2024-01-07T02:32:42;44.35;;;24.83;;
84687;SDS011;74908;42.040;21.322;2024-01-07T02:35:08;54.60;;;28.48;;
84687;SDS011;74908;42.040;21.322;2024-01-07T02:37:34;57.92;;;29.58;;
84687;SDS011;74908;42.040;21.322;2024-01-07T02:40:01;45.38;;;26.38;;
84687;SDS011;74908;42.040;21.322;2024-01-07T02:42:27;53.35;;;30.63;;
84687;SDS011;74908;42.040;21.322;2024-01-07T02:44:53;51.53;;;27.00;;
84687;SDS011;74908;42.040;21.322;2024-01-07T02:47:19;47.17;;;24.27;;
84687;SDS011;74908;42.040;21.322;2024-01-07T02:49:45;41.03;;;22.15;;
84687;SDS011;74908;42.040;21.322;2024-01-07T02:52:11;43.30;;;23.48;;
84687;SDS011;74908;42.040;21.322;2024-01-07T02:54:38;45.00;;;23.85;;
84687;SDS011;74908;42.040;21.322;2024-01-07T02:57:04;42.75;;;21.30;;
84687;SDS011;74908;42.040;21.322;2024-01-07T02:59:30;45.22;;;24.25;;
84687;SDS011;74908;42.040;21.322;2024-01-07T03:01:56;44.67;;;23.98;;
84687;SDS011;74908;42.040;21.322;2024-01-07T03:04:22;36.35;;;20.58;;
84687;SDS011;74908;42.040;21.322;2024-01-07T03:06:48;39.47;;;20.08;;
84687;SDS011;74908;42.040;21.322;2024-01-07T03:09:14;30.77;;;17.40;;
84687;SDS011;74908;42.040;21.322;2024-01-07T03:11:41;34.08;;;17.98;;
84687;SDS011;74908;42.040;21.322;2024-01-07T03:14:07;31.73;;;17.40;;
84687;SDS011;74908;42.040;21.322;2024-01-07T03:16:33;30.70;;;16.55;;
84687;SDS011;74908;42.040;21.322;2024-01-07T03:18:59;29.25;;;17.38;;
84687;SDS011;74908;42.040;21.322;2024-01-07T03:21:27;27.08;;;16.92;;
84687;SDS011;74908;42.040;21.322;2024-01-07T03:23:53;28.67;;;16.20;;
84687;SDS011;74908;42.040;21.322;2024-01-07T03:26:19;27.55;;;16.60;;
84687;SDS011;74908;42.040;21.322;2024-01-07T03:28:45;29.15;;;17.27;;
84687;SDS011;74908;42.040;21.322;2024-01-07T03:31:13;32.10;;;18.10;;
84687;SDS011;74908;42.040;21.322;2024-01-07T03:33:40;33.65;;;18.00;;
84687;SDS011;74908;42.040;21.322;2024-01-07T03:36:10;30.10;;;17.23;;
84687;SDS011;74908;42.040;21.322;2024-01-07T03:38:36;31.23;;;17.20;;
84687;SDS011;74908;42.040;21.322;2024-01-07T03:41:02;35.95;;;19.95;;
84687;SDS011;74908;42.040;21.322;2024-01-07T03:43:29;31.90;;;18.95;;
84687;SDS011;74908;42.040;21.322;2024-01-07T03:45:55;35.30;;;19.92;;
84687;SDS011;74908;42.040;21.322;2024-01-07T03:48:21;36.63;;;20.35;;
84687;SDS011;74908;42.040;21.322;2024-01-07T03:50:47;32.80;;;16.92;;
84687;SDS011;74908;42.040;21.322;2024-01-07T03:53:15;26.65;;;17.00;;
84687;SDS011;74908;42.040;21.322;2024-01-07T03:55:42;24.98;;;14.82;;
84687;SDS011;74908;42.040;21.322;2024-01-07T03:58:08;24.77;;;13.07;;
84687;SDS011;74908;42.040;21.322;2024-01-07T04:00:34;28.42;;;14.35;;
84687;SDS011;74908;42.040;21.322;2024-01-07T04:03:00;24.85;;;13.85;;
84687;SDS011;74908;42.040;21.322;2024-01-07T04:05:27;23.63;;;13.00;;
84687;SDS011;74908;42.040;21.322;2024-01-07T04:07:54;21.23;;;12.40;;
84687;SDS011;74908;42.040;21.322;2024-01-07T04:10:20;23.38;;;12.10;;
84687;SDS011;74908;42.040;21.322;2024-01-07T04:12:48;21.30;;;11.43;;
84687;SDS011;74908;42.040;21.322;2024-01-07T04:15:14;25.98;;;13.50;;
84687;SDS011;74908;42.040;21.322;2024-01-07T04:17:40;15.68;;;9.52;;
84687;SDS011;74908;42.040;21.322;2024-01-07T04:20:07;16.25;;;8.13;;
84687;SDS011;74908;42.040;21.322;2024-01-07T04:22:34;16.05;;;7.82;;
84687;SDS011;74908;42.040;21.322;2024-01-07T04:25:00;11.18;;;6.43;;
84687;SDS011;74908;42.040;21.322;2024-01-07T04:27:26;13.45;;;6.63;;
84687;SDS011;74908;42.040;21.322;2024-01-07T04:29:52;12.07;;;7.38;;
84687;SDS011;74908;42.040;21.322;2024-01-07T04:32:18;16.98;;;7.57;;
84687;SDS011;74908;42.040;21.322;2024-01-07T04:34:45;11.90;;;6.75;;
84687;SDS011;74908;42.040;21.322;2024-01-07T04:37:11;12.98;;;6.03;;
84687;SDS011;74908;42.040;21.322;2024-01-07T04:39:37;12.32;;;6.25;;
84687;SDS011;74908;42.040;21.322;2024-01-07T04:42:03;13.30;;;6.28;;
84687;SDS011;74908;42.040;21.322;2024-01-07T04:44:29;9.65;;;5.55;;
84687;SDS011;74908;42.040;21.322;2024-01-07T04:46:55;10.10;;;5.38;;
84687;SDS011;74908;42.040;21.322;2024-01-07T04:49:22;12.25;;;6.65;;
84687;SDS011;74908;42.040;21.322;2024-01-07T04:51:48;8.63;;;4.80;;
84687;SDS011;74908;42.040;21.322;2024-01-07T04:54:14;8.15;;;4.80;;
84687;SDS011;74908;42.040;21.322;2024-01-07T04:56:40;12.40;;;5.70;;
84687;SDS011;74908;42.040;21.322;2024-01-07T04:59:06;11.20;;;5.05;;
84687;SDS011;74908;42.040;21.322;2024-01-07T05:01:32;12.55;;;6.38;;
84687;SDS011;74908;42.040;21.322;2024-01-07T05:03:59;10.63;;;5.68;;
84687;SDS011;74908;42.040;21.322;2024-01-07T05:06:25;11.02;;;5.78;;
84687;SDS011;74908;42.040;21.322;2024-01-07T05:08:51;6.95;;;4.72;;
84687;SDS011;74908;42.040;21.322;2024-01-07T05:11:17;9.32;;;3.40;;
84687;SDS011;74908;42.040;21.322;2024-01-07T05:13:43;8.23;;;4.80;;
84687;SDS011;74908;42.040;21.322;2024-01-07T05:16:17;5.57;;;3.70;;
84687;SDS011;74908;42.040;21.322;2024-01-07T05:18:44;7.07;;;4.03;;
84687;SDS011;74908;42.040;21.322;2024-01-07T05:21:19;5.20;;;3.10;;
84687;SDS011;74908;42.040;21.322;2024-01-07T05:23:45;5.88;;;3.40;;
84687;SDS011;74908;42.040;21.322;2024-01-07T05:26:11;6.35;;;3.45;;
84687;SDS011;74908;42.040;21.322;2024-01-07T05:28:38;9.10;;;3.83;;
84687;SDS011;74908;42.040;21.322;2024-01-07T05:31:04;3.15;;;2.05;;
84687;SDS011;74908;42.040;21.322;2024-01-07T05:33:30;4.63;;;2.65;;
84687;SDS011;74908;42.040;21.322;2024-01-07T05:35:56;4.50;;;2.15;;
84687;SDS011;74908;42.040;21.322;2024-01-07T05:38:22;5.03;;;2.88;;
84687;SDS011;74908;42.040;21.322;2024-01-07T05:40:49;8.57;;;4.15;;
84687;SDS011;74908;42.040;21.322;2024-01-07T05:43:15;6.00;;;3.13;;
84687;SDS011;74908;42.040;21.322;2024-01-07T05:45:41;6.45;;;4.40;;
84687;SDS011;74908;42.040;21.322;2024-01-07T05:48:07;9.75;;;4.95;;
84687;SDS011;74908;42.040;21.322;2024-01-07T05:50:33;7.85;;;4.63;;
84687;SDS011;74908;42.040;21.322;2024-01-07T05:52:59;11.48;;;5.93;;
84687;SDS011;74908;42.040;21.322;2024-01-07T05:55:26;16.30;;;9.27;;
84687;SDS011;74908;42.040;21.322;2024-01-07T05:57:52;24.75;;;12.43;;
84687;SDS011;74908;42.040;21.322;2024-01-07T06:00:18;23.13;;;12.73;;
84687;SDS011;74908;42.040;21.322;2024-01-07T06:02:44;22.15;;;11.07;;
84687;SDS011;74908;42.040;21.322;2024-01-07T06:05:10;14.23;;;8.13;;
84687;SDS011;74908;42.040;21.322;2024-01-07T06:07:37;12.73;;;7.18;;
84687;SDS011;74908;42.040;21.322;2024-01-07T06:10:03;12.15;;;6.07;;
84687;SDS011;74908;42.040;21.322;2024-01-07T06:12:30;9.90;;;5.45;;
84687;SDS011;74908;42.040;21.322;2024-01-07T06:14:56;9.82;;;5.68;;
84687;SDS011;74908;42.040;21.322;2024-01-07T06:17:22;12.05;;;6.20;;
84687;SDS011;74908;42.040;21.322;2024-01-07T06:19:49;12.07;;;6.78;;
84687;SDS011;74908;42.040;21.322;2024-01-07T06:22:15;14.25;;;7.07;;
84687;SDS011;74908;42.040;21.322;2024-01-07T06:24:41;12.63;;;7.00;;
84687;SDS011;74908;42.040;21.322;2024-01-07T06:27:07;16.33;;;8.18;;
84687;SDS011;74908;42.040;21.322;2024-01-07T06:29:33;14.02;;;7.70;;
84687;SDS011;74908;42.040;21.322;2024-01-07T06:31:59;13.00;;;6.32;;
84687;SDS011;74908;42.040;21.322;2024-01-07T06:34:26;11.43;;;6.18;;
84687;SDS011;74908;42.040;21.322;2024-01-07T06:36:52;9.13;;;5.28;;
84687;SDS011;74908;42.040;21.322;2024-01-07T06:39:18;9.57;;;4.60;;
84687;SDS011;74908;42.040;21.322;2024-01-07T06:41:44;8.30;;;4.88;;
84687;SDS011;74908;42.040;21.322;2024-01-07T06:44:11;7.35;;;3.92;;
84687;SDS011;74908;42.040;21.322;2024-01-07T06:46:37;7.38;;;3.67;;
84687;SDS011;74908;42.040;21.322;2024-01-07T06:49:03;6.45;;;3.78;;
84687;SDS011;74908;42.040;21.322;2024-01-07T06:51:29;7.15;;;3.63;;
84687;SDS011;74908;42.040;21.322;2024-01-07T06:53:55;6.40;;;3.60;;
84687;SDS011;74908;42.040;21.322;2024-01-07T06:56:21;5.40;;;3.13;;
84687;SDS011;74908;42.040;21.322;2024-01-07T06:58:49;6.63;;;3.05;;
84687;SDS011;74908;42.040;21.322;2024-01-07T07:01:17;6.45;;;3.10;;
84687;SDS011;74908;42.040;21.322;2024-01-07T07:03:44;5.13;;;2.95;;
84687;SDS011;74908;42.040;21.322;2024-01-07T07:06:10;5.70;;;3.22;;
84687;SDS011;74908;42.040;21.322;2024-01-07T07:08:38;5.28;;;2.92;;
84687;SDS011;74908;42.040;21.322;2024-01-07T07:11:04;5.18;;;2.63;;
84687;SDS011;74908;42.040;21.322;2024-01-07T07:13:30;7.70;;;2.67;;
84687;SDS011;74908;42.040;21.322;2024-01-07T07:15:56;5.07;;;2.95;;
84687;SDS011;74908;42.040;21.322;2024-01-07T07:18:22;5.65;;;2.50;;
84687;SDS011;74908;42.040;21.322;2024-01-07T07:20:49;5.90;;;3.42;;
84687;SDS011;74908;42.040;21.322;2024-01-07T07:23:16;4.07;;;2.60;;
84687;SDS011;74908;42.040;21.322;2024-01-07T07:25:42;5.95;;;2.97;;
84687;SDS011;74908;42.040;21.322;2024-01-07T07:28:12;3.20;;;1.83;;
84687;SDS011;74908;42.040;21.322;2024-01-07T07:30:38;6.50;;;1.58;;
84687;SDS011;74908;42.040;21.322;2024-01-07T07:33:04;3.72;;;2.20;;
84687;SDS011;74908;42.040;21.322;2024-01-07T07:35:30;1.80;;;1.00;;
84687;SDS011;74908;42.040;21.322;2024-01-07T07:37:56;2.75;;;1.38;;
84687;SDS011;74908;42.040;21.322;2024-01-07T07:40:22;2.08;;;1.27;;
84687;SDS011;74908;42.040;21.322;2024-01-07T07:42:49;3.67;;;1.73;;
84687;SDS011;74908;42.040;21.322;2024-01-07T07:45:15;3.95;;;1.65;;
84687;SDS011;74908;42.040;21.322;2024-01-07T07:47:41;2.10;;;1.33;;
84687;SDS011;74908;42.040;21.322;2024-01-07T07:50:12;2.85;;;0.90;;
84687;SDS011;74908;42.040;21.322;2024-01-07T07:52:39;2.13;;;0.98;;
84687;SDS011;74908;42.040;21.322;2024-01-07T07:55:05;1.67;;;1.15;;
84687;SDS011;74908;42.040;21.322;2024-01-07T07:57:32;1.73;;;0.90;;
84687;SDS011;74908;42.040;21.322;2024-01-07T07:59:58;1.95;;;1.05;;
84687;SDS011;74908;42.040;21.322;2024-01-07T08:02:24;0.98;;;0.57;;
84687;SDS011;74908;42.040;21.322;2024-01-07T08:04:50;1.40;;;0.65;;
84687;SDS011;74908;42.040;21.322;2024-01-07T08:07:17;2.03;;;0.70;;
84687;SDS011;74908;42.040;21.322;2024-01-07T08:09:43;1.52;;;0.70;;
84687;SDS011;74908;42.040;21.322;2024-01-07T08:12:09;1.63;;;0.70;;
84687;SDS011;74908;42.040;21.322;2024-01-07T08:14:37;1.02;;;0.68;;
84687;SDS011;74908;42.040;21.322;2024-01-07T08:17:06;1.65;;;0.70;;
84687;SDS011;74908;42.040;21.322;2024-01-07T08:19:32;2.00;;;0.63;;
84687;SDS011;74908;42.040;21.322;2024-01-07T08:21:59;1.50;;;0.85;;
84687;SDS011;74908;42.040;21.322;2024-01-07T08:24:25;1.38;;;0.90;;
84687;SDS011;74908;42.040;21.322;2024-01-07T08:26:51;3.50;;;0.90;;
84687;SDS011;74908;42.040;21.322;2024-01-07T08:29:17;1.42;;;0.85;;
84687;SDS011;74908;42.040;21.322;2024-01-07T08:31:43;4.22;;;1.05;;
84687;SDS011;74908;42.040;21.322;2024-01-07T08:34:10;1.95;;;0.73;;
84687;SDS011;74908;42.040;21.322;2024-01-07T08:36:36;1.63;;;1.00;;
84687;SDS011;74908;42.040;21.322;2024-01-07T08:39:03;1.90;;;0.77;;
84687;SDS011;74908;42.040;21.322;2024-01-07T08:41:29;1.42;;;0.70;;
84687;SDS011;74908;42.040;21.322;2024-01-07T08:43:56;2.58;;;0.90;;
84687;SDS011;74908;42.040;21.322;2024-01-07T08:46:22;3.22;;;0.90;;
84687;SDS011;74908;42.040;21.322;2024-01-07T08:48:48;1.95;;;0.60;;
84687;SDS011;74908;42.040;21.322;2024-01-07T08:51:14;2.15;;;1.00;;
84687;SDS011;74908;42.040;21.322;2024-01-07T08:53:40;2.78;;;0.80;;
84687;SDS011;74908;42.040;21.322;2024-01-07T08:56:06;2.38;;;0.77;;
84687;SDS011;74908;42.040;21.322;2024-01-07T08:58:33;1.33;;;0.70;;
84687;SDS011;74908;42.040;21.322;2024-01-07T09:01:00;2.78;;;1.13;;
84687;SDS011;74908;42.040;21.322;2024-01-07T09:03:26;1.95;;;0.85;;
84687;SDS011;74908;42.040;21.322;2024-01-07T09:05:52;2.35;;;0.85;;
84687;SDS011;74908;42.040;21.322;2024-01-07T09:08:18;2.20;;;1.05;;
84687;SDS011;74908;42.040;21.322;2024-01-07T09:10:44;2.20;;;1.23;;
84687;SDS011;74908;42.040;21.322;2024-01-07T09:13:11;1.73;;;0.90;;
84687;SDS011;74908;42.040;21.322;2024-01-07T09:15:37;3.05;;;1.00;;
84687;SDS011;74908;42.040;21.322;2024-01-07T09:18:04;3.05;;;1.77;;
84687;SDS011;74908;42.040;21.322;2024-01-07T09:20:30;3.65;;;2.10;;
84687;SDS011;74908;42.040;21.322;2024-01-07T09:22:56;5.53;;;2.35;;
84687;SDS011;74908;42.040;21.322;2024-01-07T09:25:22;6.18;;;2.85;;
84687;SDS011;74908;42.040;21.322;2024-01-07T09:27:49;4.10;;;2.45;;
84687;SDS011;74908;42.040;21.322;2024-01-07T09:30:15;5.65;;;2.88;;
84687;SDS011;74908;42.040;21.322;2024-01-07T09:32:42;5.88;;;3.55;;
84687;SDS011;74908;42.040;21.322;2024-01-07T09:35:09;7.15;;;3.22;;
84687;SDS011;74908;42.040;21.322;2024-01-07T09:37:35;6.97;;;3.40;;
84687;SDS011;74908;42.040;21.322;2024-01-07T09:40:02;7.60;;;3.75;;
84687;SDS011;74908;42.040;21.322;2024-01-07T09:42:31;7.68;;;3.75;;
84687;SDS011;74908;42.040;21.322;2024-01-07T09:45:00;4.75;;;2.97;;
84687;SDS011;74908;42.040;21.322;2024-01-07T09:47:29;6.55;;;4.03;;
84687;SDS011;74908;42.040;21.322;2024-01-07T09:49:55;7.90;;;3.95;;
84687;SDS011;74908;42.040;21.322;2024-01-07T09:52:21;7.15;;;3.85;;
84687;SDS011;74908;42.040;21.322;2024-01-07T09:54:53;7.45;;;4.90;;
84687;SDS011;74908;42.040;21.322;2024-01-07T09:57:22;7.78;;;4.75;;
84687;SDS011;74908;42.040;21.322;2024-01-07T09:59:48;8.10;;;5.15;;
84687;SDS011;74908;42.040;21.322;2024-01-07T10:02:15;5.63;;;3.58;;
84687;SDS011;74908;42.040;21.322;2024-01-07T10:04:41;6.53;;;3.72;;
84687;SDS011;74908;42.040;21.322;2024-01-07T10:07:09;7.30;;;4.15;;
84687;SDS011;74908;42.040;21.322;2024-01-07T10:09:35;5.95;;;3.40;;
84687;SDS011;74908;42.040;21.322;2024-01-07T10:12:01;10.00;;;3.78;;
84687;SDS011;74908;42.040;21.322;2024-01-07T10:14:29;5.80;;;2.85;;
84687;SDS011;74908;42.040;21.322;2024-01-07T10:16:55;6.28;;;3.25;;
84687;SDS011;74908;42.040;21.322;2024-01-07T10:19:24;6.55;;;3.70;;
84687;SDS011;74908;42.040;21.322;2024-01-07T10:22:03;4.20;;;2.42;;
84687;SDS011;74908;42.040;21.322;2024-01-07T10:24:36;3.85;;;2.35;;
84687;SDS011;74908;42.040;21.322;2024-01-07T10:27:03;5.57;;;3.63;;
84687;SDS011;74908;42.040;21.322;2024-01-07T10:29:30;4.85;;;3.45;;
84687;SDS011;74908;42.040;21.322;2024-01-07T10:31:57;4.90;;;3.55;;
84687;SDS011;74908;42.040;21.322;2024-01-07T10:34:23;9.07;;;4.45;;
84687;SDS011;74908;42.040;21.322;2024-01-07T10:36:53;5.40;;;3.30;;
84687;SDS011;74908;42.040;21.322;2024-01-07T10:39:21;5.18;;;3.13;;
84687;SDS011;74908;42.040;21.322;2024-01-07T10:41:48;8.43;;;3.45;;
84687;SDS011;74908;42.040;21.322;2024-01-07T10:44:17;8.40;;;3.72;;
84687;SDS011;74908;42.040;21.322;2024-01-07T10:46:43;9.95;;;6.45;;
84687;SDS011;74908;42.040;21.322;2024-01-07T10:49:18;9.10;;;5.35;;
84687;SDS011;74908;42.040;21.322;2024-01-07T10:51:46;10.13;;;6.13;;
84687;SDS011;74908;42.040;21.322;2024-01-07T10:54:13;12.63;;;6.70;;
84687;SDS011;74908;42.040;21.322;2024-01-07T10:56:45;10.73;;;6.28;;
84687;SDS011;74908;42.040;21.322;2024-01-07T10:59:15;10.73;;;6.38;;
84687;SDS011;74908;42.040;21.322;2024-01-07T11:01:41;8.57;;;4.93;;
84687;SDS011;74908;42.040;21.322;2024-01-07T11:04:10;6.43;;;3.92;;
84687;SDS011;74908;42.040;21.322;2024-01-07T11:06:45;9.73;;;4.68;;
84687;SDS011;74908;42.040;21.322;2024-01-07T11:11:44;5.00;;;2.60;;
84687;SDS011;74908;42.040;21.322;2024-01-07T11:16:55;13.18;;;6.85;;
84687;SDS011;74908;42.040;21.322;2024-01-07T11:19:21;14.63;;;6.78;;
84687;SDS011;74908;42.040;21.322;2024-01-07T11:21:47;10.75;;;4.88;;
84687;SDS011;74908;42.040;21.322;2024-01-07T11:27:01;7.38;;;4.70;;
84687;SDS011;74908;42.040;21.322;2024-01-07T11:29:27;10.80;;;5.38;;
84687;SDS011;74908;42.040;21.322;2024-01-07T11:31:53;10.43;;;5.32;;
84687;SDS011;74908;42.040;21.322;2024-01-07T11:37:17;5.43;;;3.50;;
84687;SDS011;74908;42.040;21.322;2024-01-07T11:39:46;5.40;;;3.70;;
84687;SDS011;74908;42.040;21.322;2024-01-07T11:42:13;7.00;;;3.92;;
84687;SDS011;74908;42.040;21.322;2024-01-07T11:44:52;10.98;;;4.60;;
84687;SDS011;74908;42.040;21.322;2024-01-07T11:47:19;6.28;;;3.88;;
84687;SDS011;74908;42.040;21.322;2024-01-07T11:49:46;5.90;;;3.47;;
84687;SDS011;74908;42.040;21.322;2024-01-07T11:52:12;6.97;;;4.50;;
84687;SDS011;74908;42.040;21.322;2024-01-07T11:54:39;6.45;;;4.05;;
84687;SDS011;74908;42.040;21.322;2024-01-07T11:57:06;7.90;;;4.10;;
84687;SDS011;74908;42.040;21.322;2024-01-07T11:59:33;7.00;;;3.90;;
84687;SDS011;74908;42.040;21.322;2024-01-07T12:02:00;6.60;;;4.78;;
84687;SDS011;74908;42.040;21.322;2024-01-07T12:04:26;7.68;;;4.75;;
84687;SDS011;74908;42.040;21.322;2024-01-07T12:06:53;9.73;;;5.95;;
84687;SDS011;74908;42.040;21.322;2024-01-07T12:09:19;9.35;;;5.72;;
84687;SDS011;74908;42.040;21.322;2024-01-07T12:11:45;10.95;;;7.20;;
84687;SDS011;74908;42.040;21.322;2024-01-07T12:14:11;11.00;;;7.13;;
84687;SDS011;74908;42.040;21.322;2024-01-07T12:16:38;19.40;;;11.38;;
84687;SDS011;74908;42.040;21.322;2024-01-07T12:19:04;20.30;;;11.95;;
84687;SDS011;74908;42.040;21.322;2024-01-07T12:21:30;18.88;;;11.57;;
84687;SDS011;74908;42.040;21.322;2024-01-07T12:23:57;16.48;;;11.43;;
84687;SDS011;74908;42.040;21.322;2024-01-07T12:26:27;16.65;;;11.00;;
84687;SDS011;74908;42.040;21.322;2024-01-07T12:28:53;16.92;;;10.93;;
84687;SDS011;74908;42.040;21.322;2024-01-07T12:31:21;23.05;;;11.93;;
84687;SDS011;74908;42.040;21.322;2024-01-07T12:33:47;21.88;;;12.15;;
84687;SDS011;74908;42.040;21.322;2024-01-07T12:36:13;16.65;;;11.07;;
84687;SDS011;74908;42.040;21.322;2024-01-07T12:38:40;20.08;;;11.43;;
84687;SDS011;74908;42.040;21.322;2024-01-07T12:41:06;21.50;;;11.55;;
84687;SDS011;74908;42.040;21.322;2024-01-07T12:46:36;16.95;;;10.30;;
84687;SDS011;74908;42.040;21.322;2024-01-07T12:49:02;17.65;;;10.80;;
84687;SDS011;74908;42.040;21.322;2024-01-07T12:51:28;17.20;;;10.52;;
84687;SDS011;74908;42.040;21.322;2024-01-07T12:53:54;16.45;;;10.07;;
84687;SDS011;74908;42.040;21.322;2024-01-07T12:56:21;12.63;;;8.00;;
84687;SDS011;74908;42.040;21.322;2024-01-07T12:58:48;15.50;;;8.55;;
84687;SDS011;74908;42.040;21.322;2024-01-07T13:01:14;16.02;;;9.02;;
84687;SDS011;74908;42.040;21.322;2024-01-07T13:03:40;14.50;;;7.93;;
84687;SDS011;74908;42.040;21.322;2024-01-07T13:06:06;10.30;;;7.43;;
84687;SDS011;74908;42.040;21.322;2024-01-07T13:08:32;14.07;;;6.60;;
84687;SDS011;74908;42.040;21.322;2024-01-07T13:10:58;12.60;;;7.55;;
84687;SDS011;74908;42.040;21.322;2024-01-07T13:13:26;10.50;;;7.22;;
84687;SDS011;74908;42.040;21.322;2024-01-07T13:15:52;10.13;;;6.20;;
84687;SDS011;74908;42.040;21.322;2024-01-07T13:18:19;13.32;;;7.88;;
84687;SDS011;74908;42.040;21.322;2024-01-07T13:20:45;10.95;;;6.80;;
84687;SDS011;74908;42.040;21.322;2024-01-07T13:23:12;11.40;;;6.88;;
84687;SDS011;74908;42.040;21.322;2024-01-07T13:25:38;15.77;;;8.15;;
84687;SDS011;74908;42.040;21.322;2024-01-07T13:28:04;16.27;;;8.00;;
84687;SDS011;74908;42.040;21.322;2024-01-07T13:30:36;11.38;;;6.13;;
84687;SDS011;74908;42.040;21.322;2024-01-07T13:33:02;10.95;;;7.43;;
84687;SDS011;74908;42.040;21.322;2024-01-07T13:35:28;16.10;;;8.60;;
84687;SDS011;74908;42.040;21.322;2024-01-07T13:37:54;19.27;;;10.52;;
84687;SDS011;74908;42.040;21.322;2024-01-07T13:40:20;21.10;;;12.90;;
84687;SDS011;74908;42.040;21.322;2024-01-07T13:42:46;21.80;;;13.77;;
84687;SDS011;74908;42.040;21.322;2024-01-07T13:45:16;16.70;;;10.65;;
84687;SDS011;74908;42.040;21.322;2024-01-07T13:47:45;14.10;;;8.70;;
84687;SDS011;74908;42.040;21.322;2024-01-07T13:50:12;16.73;;;9.65;;
84687;SDS011;74908;42.040;21.322;2024-01-07T13:52:38;15.15;;;8.98;;
84687;SDS011;74908;42.040;21.322;2024-01-07T13:55:06;13.20;;;8.02;;
84687;SDS011;74908;42.040;21.322;2024-01-07T13:57:35;11.88;;;7.68;;
84687;SDS011;74908;42.040;21.322;2024-01-07T14:00:01;14.00;;;7.70;;
84687;SDS011;74908;42.040;21.322;2024-01-07T14:02:34;12.77;;;7.28;;
84687;SDS011;74908;42.040;21.322;2024-01-07T14:05:04;12.75;;;7.22;;
84687;SDS011;74908;42.040;21.322;2024-01-07T14:07:31;15.88;;;8.68;;
84687;SDS011;74908;42.040;21.322;2024-01-07T14:10:00;15.70;;;8.05;;
84687;SDS011;74908;42.040;21.322;2024-01-07T14:12:31;17.17;;;9.55;;
84687;SDS011;74908;42.040;21.322;2024-01-07T14:14:57;17.02;;;10.32;;
84687;SDS011;74908;42.040;21.322;2024-01-07T14:17:26;16.90;;;9.50;;
84687;SDS011;74908;42.040;21.322;2024-01-07T14:19:52;19.30;;;10.07;;
84687;SDS011;74908;42.040;21.322;2024-01-07T14:22:19;14.68;;;8.93;;
84687;SDS011;74908;42.040;21.322;2024-01-07T14:24:46;19.13;;;10.50;;
84687;SDS011;74908;42.040;21.322;2024-01-07T14:27:13;20.33;;;11.23;;
84687;SDS011;74908;42.040;21.322;2024-01-07T14:29:40;21.58;;;12.23;;
84687;SDS011;74908;42.040;21.322;2024-01-07T14:32:06;22.48;;;13.38;;